createdAt,value
2023-01-31T00:01:23.000Z,2.71
2023-01-31T00:04:14.596Z,2.72
2023-01-31T00:06:45.073Z,2.72
2023-01-31T00:09:17.051Z,2.71
2023-01-31T00:11:47.720Z,2.70
2023-01-31T00:14:22.624Z,2.68
2023-01-31T00:17:03.547Z,2.67
2023-01-31T00:19:43.213Z,2.66
2023-01-31T00:22:33.897Z,2.65
2023-01-31T00:25:04.644Z,2.64
2023-01-31T00:27:43.886Z,2.63
2023-01-31T00:30:24.027Z,2.62
2023-01-31T00:32:54.639Z,2.63
2023-01-31T00:35:28.674Z,2.61
2023-01-31T00:38:19.329Z,2.60
2023-01-31T00:40:58.599Z,2.60
2023-01-31T00:43:29.257Z,2.59
2023-01-31T00:46:00.314Z,2.59
2023-01-31T00:48:30.863Z,2.58
2023-01-31T00:51:04.747Z,2.58
2023-01-31T00:53:55.443Z,2.57
2023-01-31T00:56:29.268Z,2.57
2023-01-31T00:59:04.478Z,2.57
2023-01-31T01:01:36.070Z,2.58
2023-01-31T01:04:20.905Z,2.59
2023-01-31T01:07:02.263Z,2.61
2023-01-31T01:09:44.193Z,2.61
2023-01-31T01:12:35.463Z,2.60
2023-01-31T01:15:07.487Z,2.58
2023-01-31T01:17:47.215Z,2.58
2023-01-31T01:20:28.954Z,2.57
2023-01-31T01:23:09.665Z,2.55
2023-01-31T01:25:46.550Z,2.55
2023-01-31T01:28:29.054Z,2.53
2023-01-31T01:31:05.293Z,2.52
2023-01-31T01:33:38.662Z,2.51
2023-01-31T01:36:22.239Z,2.50
2023-01-31T01:38:55.843Z,2.50
2023-01-31T01:41:47.827Z,2.49
2023-01-31T01:44:49.772Z,2.48
2023-01-31T01:47:46.615Z,2.47
2023-01-31T01:50:21.755Z,2.46
2023-01-31T01:53:17.025Z,2.45
2023-01-31T01:56:03.219Z,2.43
2023-01-31T01:59:01.580Z,2.43
2023-01-31T02:01:38.732Z,2.42
2023-01-31T02:04:32.077Z,2.41
2023-01-31T02:07:06.689Z,2.40
2023-01-31T02:09:52.503Z,2.39
2023-01-31T02:12:43.538Z,2.38
2023-01-31T02:15:35.232Z,2.36
2023-01-31T02:18:16.910Z,2.35
2023-01-31T02:21:46.822Z,2.35
2023-01-31T02:24:50.210Z,2.35
2023-01-31T02:28:05.794Z,2.35
2023-01-31T02:31:37.063Z,2.34
2023-01-31T02:34:09.431Z,2.34
2023-01-31T02:37:14.807Z,2.34
2023-01-31T02:40:00.032Z,2.34
2023-01-31T02:42:43.792Z,2.35
2023-01-31T02:45:42.854Z,2.36
2023-01-31T02:48:37.011Z,2.36
2023-01-31T02:51:21.720Z,2.37
2023-01-31T02:54:10.318Z,2.38
2023-01-31T02:56:51.942Z,2.39
2023-01-31T02:59:43.517Z,2.40
2023-01-31T03:02:35.026Z,2.40
2023-01-31T03:05:26.238Z,2.37
2023-01-31T03:08:23.302Z,2.33
2023-01-31T03:11:04.596Z,2.30
2023-01-31T03:13:56.513Z,2.27
2023-01-31T03:16:50.783Z,2.23
2023-01-31T03:19:29.382Z,2.20
2023-01-31T03:22:26.359Z,2.17
2023-01-31T03:25:11.581Z,2.14
2023-01-31T03:27:57.276Z,2.12
2023-01-31T03:30:36.405Z,2.09
2023-01-31T03:33:14.561Z,2.06
2023-01-31T03:35:55.292Z,2.05
2023-01-31T03:38:36.055Z,2.02
2023-01-31T03:41:26.817Z,1.97
2023-01-31T03:44:04.261Z,1.92
2023-01-31T03:46:51.627Z,1.86
2023-01-31T03:49:28.003Z,1.79
2023-01-31T03:52:25.296Z,1.71
2023-01-31T03:55:22.094Z,1.64
2023-01-31T03:57:56.974Z,1.54
2023-01-31T04:00:35.591Z,1.44
2023-01-31T04:03:16.535Z,1.32
2023-01-31T04:05:49.250Z,1.22
2023-01-31T04:08:23.551Z,1.10
2023-01-31T04:11:06.908Z,0.98
2023-01-31T04:13:37.740Z,0.88
2023-01-31T04:16:17.115Z,0.77
2023-01-31T04:19:06.901Z,0.68
2023-01-31T04:21:57.559Z,0.63
2023-01-31T04:24:28.549Z,0.58
2023-01-31T04:27:09.865Z,0.53
2023-01-31T04:29:51.769Z,0.48
2023-01-31T04:32:33.489Z,0.43
2023-01-31T04:35:24.317Z,0.36
2023-01-31T04:38:15.060Z,0.29
2023-01-31T04:40:52.828Z,0.20
2023-01-31T04:43:43.507Z,0.11
2023-01-31T04:46:17.394Z,0.03
2023-01-31T04:48:59.230Z,-0.07
2023-01-31T04:51:49.877Z,-0.14
2023-01-31T04:54:41.963Z,-0.21
2023-01-31T04:57:23.483Z,-0.27
2023-01-31T05:00:12.251Z,-0.33
2023-01-31T05:02:45.890Z,-0.38
2023-01-31T05:05:27.986Z,-0.44
2023-01-31T05:08:17.356Z,-0.50
2023-01-31T05:10:50.787Z,-0.55
2023-01-31T05:13:25.285Z,-0.59
2023-01-31T05:15:58.154Z,-0.63
2023-01-31T05:18:39.397Z,-0.69
2023-01-31T05:21:30.146Z,-0.72
2023-01-31T05:24:21.181Z,-0.74
2023-01-31T05:27:04.998Z,-0.73
2023-01-31T05:29:55.982Z,-0.74
2023-01-31T05:32:47.053Z,-0.75
2023-01-31T05:35:38.762Z,-0.77
2023-01-31T05:38:29.579Z,-0.77
2023-01-31T05:41:20.326Z,-0.78
2023-01-31T05:44:04.033Z,-0.81
2023-01-31T05:46:54.750Z,-0.85
2023-01-31T05:49:34.578Z,-0.88
2023-01-31T05:52:25.465Z,-0.91
2023-01-31T05:55:16.218Z,-0.95
2023-01-31T05:58:07.025Z,-0.98
2023-01-31T06:00:46.075Z,-1.02
2023-01-31T06:03:36.758Z,-1.05
2023-01-31T06:06:18.533Z,-1.03
2023-01-31T06:08:58.942Z,-0.99
2023-01-31T06:11:40.323Z,-0.92
2023-01-31T06:14:13.535Z,-0.89
2023-01-31T06:16:47.181Z,-0.77
2023-01-31T06:19:38.420Z,-0.62
2023-01-31T06:22:29.208Z,-0.46
2023-01-31T06:25:10.309Z,-0.33
2023-01-31T06:27:40.957Z,-0.20
2023-01-31T06:30:19.966Z,-0.09
2023-01-31T06:32:53.505Z,0.04
2023-01-31T06:35:26.828Z,0.13
2023-01-31T06:38:12.505Z,0.22
2023-01-31T06:40:54.276Z,0.33
2023-01-31T06:43:44.871Z,0.44
2023-01-31T06:46:27.394Z,0.53
2023-01-31T06:49:00.763Z,0.60
2023-01-31T06:51:51.639Z,0.69
2023-01-31T06:54:42.209Z,0.76
2023-01-31T06:57:33.011Z,0.80
2023-01-31T07:00:07.213Z,0.84
2023-01-31T07:02:37.909Z,0.87
2023-01-31T07:05:28.660Z,0.90
2023-01-31T07:08:19.412Z,0.91
2023-01-31T07:10:53.496Z,0.93
2023-01-31T07:13:27.469Z,0.94
2023-01-31T07:15:58.302Z,0.95
2023-01-31T07:18:41.402Z,0.96
2023-01-31T07:21:33.410Z,0.96
2023-01-31T07:24:24.133Z,0.98
2023-01-31T07:26:56.712Z,0.99
2023-01-31T07:29:27.648Z,1.00
2023-01-31T07:32:11.688Z,1.01
2023-01-31T07:34:49.972Z,1.02
2023-01-31T07:37:25.645Z,1.02
2023-01-31T07:40:09.725Z,1.02
2023-01-31T07:43:01.890Z,1.03
2023-01-31T07:45:32.485Z,1.03
2023-01-31T07:48:13.496Z,1.03
2023-01-31T07:51:05.106Z,1.05
2023-01-31T07:53:45.809Z,1.07
2023-01-31T07:56:26.719Z,1.09
2023-01-31T07:59:17.846Z,1.10
2023-01-31T08:02:31.096Z,1.12
2023-01-31T08:05:05.819Z,1.14
2023-01-31T08:08:09.364Z,1.17
2023-01-31T08:11:00.369Z,1.20
2023-01-31T08:13:31.644Z,1.22
2023-01-31T08:16:13.681Z,1.24
2023-01-31T08:18:50.437Z,1.26
2023-01-31T08:21:24.935Z,1.26
2023-01-31T08:24:09.848Z,1.27
2023-01-31T08:27:01.442Z,1.29
2023-01-31T08:29:50.599Z,1.31
2023-01-31T08:32:31.685Z,1.36
2023-01-31T08:35:22.824Z,1.42
2023-01-31T08:38:06.985Z,1.47
2023-01-31T08:40:54.221Z,1.52
2023-01-31T08:43:56.823Z,1.58
2023-01-31T08:46:31.601Z,1.64
2023-01-31T08:49:13.073Z,1.67
2023-01-31T08:52:21.241Z,1.71
2023-01-31T08:54:59.531Z,1.75
2023-01-31T08:57:36.848Z,1.78
2023-01-31T09:00:31.329Z,1.83
2023-01-31T09:03:18.379Z,1.87
2023-01-31T09:05:59.501Z,1.89
2023-01-31T09:08:31.284Z,1.91
2023-01-31T09:11:22.449Z,1.96
2023-01-31T09:14:14.380Z,2.01
2023-01-31T09:17:05.590Z,2.06
2023-01-31T09:19:57.390Z,2.12
2023-01-31T09:22:47.672Z,2.14
2023-01-31T09:25:42.308Z,2.15
2023-01-31T09:28:35.755Z,2.19
2023-01-31T09:31:14.578Z,2.23
2023-01-31T09:34:05.771Z,2.35
2023-01-31T09:36:48.419Z,2.42
2023-01-31T09:39:39.365Z,2.47
2023-01-31T09:42:37.163Z,2.56
2023-01-31T09:45:33.447Z,2.68
2023-01-31T09:48:21.757Z,2.72
2023-01-31T09:51:07.500Z,2.78
2023-01-31T09:53:59.313Z,2.84
2023-01-31T09:56:47.106Z,2.84
2023-01-31T09:59:37.437Z,2.83
2023-01-31T10:02:56.713Z,2.82
2023-01-31T10:05:47.120Z,2.83
2023-01-31T10:08:46.806Z,2.83
2023-01-31T10:11:44.639Z,2.86
2023-01-31T10:14:43.404Z,2.92
2023-01-31T10:17:24.272Z,3.00
2023-01-31T10:20:00.504Z,3.06
2023-01-31T10:22:40.384Z,3.15
2023-01-31T10:25:26.794Z,3.20
2023-01-31T10:28:15.095Z,3.26
2023-01-31T10:31:03.630Z,3.30
2023-01-31T10:33:50.552Z,3.35
2023-01-31T10:36:29.109Z,3.40
2023-01-31T10:39:22.442Z,3.44
2023-01-31T10:42:12.057Z,3.47
2023-01-31T10:44:56.295Z,3.48
2023-01-31T10:47:46.469Z,3.48
2023-01-31T10:50:29.064Z,3.43
2023-01-31T10:53:36.648Z,3.40
2023-01-31T10:56:26.805Z,3.35
2023-01-31T10:59:00.115Z,3.32
2023-01-31T11:01:31.493Z,3.30
2023-01-31T11:04:15.485Z,3.31
2023-01-31T11:06:55.928Z,3.30
2023-01-31T11:09:33.657Z,3.29
2023-01-31T11:12:15.560Z,3.30
2023-01-31T11:15:15.472Z,3.31
2023-01-31T11:17:50.920Z,3.33
2023-01-31T11:20:32.012Z,3.33
2023-01-31T11:23:18.773Z,3.33
2023-01-31T11:26:10.682Z,3.37
2023-01-31T11:28:54.174Z,3.38
2023-01-31T11:31:47.738Z,3.37
2023-01-31T11:34:31.331Z,3.38
2023-01-31T11:37:22.267Z,3.37
2023-01-31T11:40:27.928Z,3.37
2023-01-31T11:43:03.782Z,3.37
2023-01-31T11:45:38.275Z,3.37
2023-01-31T11:48:19.721Z,3.37
2023-01-31T11:50:57.568Z,3.39
2023-01-31T11:53:52.101Z,3.40
2023-01-31T11:56:26.924Z,3.40
2023-01-31T11:59:04.201Z,3.39
2023-01-31T12:01:45.969Z,3.39
2023-01-31T12:04:23.454Z,3.39
2023-01-31T12:07:27.099Z,3.40
2023-01-31T12:10:37.183Z,3.38
2023-01-31T12:13:21.174Z,3.39
2023-01-31T12:16:15.550Z,3.39
2023-01-31T12:19:19.675Z,3.40
2023-01-31T12:22:02.053Z,3.40
2023-01-31T12:24:59.879Z,3.40
2023-01-31T12:27:42.578Z,3.38
2023-01-31T12:30:32.021Z,3.37
2023-01-31T12:33:36.368Z,3.36
2023-01-31T12:36:20.937Z,3.35
2023-01-31T12:39:15.990Z,3.36
2023-01-31T12:42:25.321Z,3.36
2023-01-31T12:45:46.553Z,3.37
2023-01-31T12:48:45.829Z,3.39
2023-01-31T12:51:44.682Z,3.39
2023-01-31T12:54:55.348Z,3.42
2023-01-31T12:57:57.361Z,3.43
2023-01-31T13:00:46.210Z,3.44
2023-01-31T13:03:39.112Z,3.48
2023-01-31T13:06:35.685Z,3.50
2023-01-31T13:09:26.679Z,3.51
2023-01-31T13:12:13.534Z,3.51
2023-01-31T13:15:09.569Z,3.50
2023-01-31T13:17:56.568Z,3.50
2023-01-31T13:20:51.262Z,3.48
2023-01-31T13:23:46.213Z,3.48
2023-01-31T13:26:41.517Z,3.48
2023-01-31T13:29:20.664Z,3.49
2023-01-31T13:31:59.328Z,3.50
2023-01-31T13:34:51.338Z,3.52
2023-01-31T13:37:39.564Z,3.54
2023-01-31T13:40:34.139Z,3.56
2023-01-31T13:43:25.073Z,3.56
2023-01-31T13:46:21.174Z,3.53
2023-01-31T13:49:19.569Z,3.50
2023-01-31T13:52:05.192Z,3.47
2023-01-31T13:54:50.508Z,3.47
2023-01-31T13:57:47.576Z,3.45
2023-01-31T14:00:39.811Z,3.42
2023-01-31T14:03:14.141Z,3.38
2023-01-31T14:06:00.440Z,3.34
2023-01-31T14:09:00.164Z,3.31
2023-01-31T14:11:52.143Z,3.26
2023-01-31T14:14:43.164Z,3.22
2023-01-31T14:18:03.175Z,3.19
2023-01-31T14:20:37.168Z,3.18
2023-01-31T14:23:48.046Z,3.17
2023-01-31T14:26:52.346Z,3.16
2023-01-31T14:29:25.752Z,3.17
2023-01-31T14:32:29.553Z,3.18
2023-01-31T14:35:28.283Z,3.19
2023-01-31T14:38:17.391Z,3.20
2023-01-31T14:41:02.956Z,3.20
2023-01-31T14:44:03.234Z,3.19
2023-01-31T14:46:53.179Z,3.19
2023-01-31T14:50:25.777Z,3.21
2023-01-31T14:53:36.982Z,3.22
2023-01-31T14:56:27.768Z,3.23
2023-01-31T14:59:33.133Z,3.22
2023-01-31T15:02:47.747Z,3.19
2023-01-31T15:05:49.664Z,3.14
2023-01-31T15:09:10.345Z,3.08
2023-01-31T15:11:54.992Z,3.02
2023-01-31T15:14:49.310Z,2.94
2023-01-31T15:17:40.941Z,2.88
2023-01-31T15:20:29.981Z,2.82
2023-01-31T15:23:16.004Z,2.77
2023-01-31T15:26:08.906Z,2.71
2023-01-31T15:28:53.622Z,2.66
2023-01-31T15:31:44.597Z,2.63
2023-01-31T15:34:53.634Z,2.58
2023-01-31T15:37:28.095Z,2.56
2023-01-31T15:40:15.073Z,2.54
2023-01-31T15:43:26.099Z,2.53
2023-01-31T15:46:22.237Z,2.53
2023-01-31T15:49:38.516Z,2.52
2023-01-31T15:52:34.778Z,2.52
2023-01-31T15:55:25.821Z,2.53
2023-01-31T15:58:20.902Z,2.54
2023-01-31T16:01:05.786Z,2.55
2023-01-31T16:03:43.585Z,2.57
2023-01-31T16:06:37.211Z,2.60
2023-01-31T16:09:31.250Z,2.63
2023-01-31T16:12:22.320Z,2.65
2023-01-31T16:15:22.987Z,2.67
2023-01-31T16:18:15.413Z,2.68
2023-01-31T16:20:58.385Z,2.70
2023-01-31T16:23:58.057Z,2.72
2023-01-31T16:26:59.179Z,2.73
2023-01-31T16:29:44.781Z,2.74
2023-01-31T16:32:40.349Z,2.77
2023-01-31T16:35:32.450Z,2.80
2023-01-31T16:38:28.099Z,2.83
2023-01-31T16:41:15.334Z,2.87
2023-01-31T16:43:56.086Z,2.90
2023-01-31T16:46:48.947Z,2.94
2023-01-31T16:49:37.508Z,2.99
2023-01-31T16:52:31.185Z,3.01
2023-01-31T16:55:13.902Z,3.04
2023-01-31T16:58:04.925Z,3.06
2023-01-31T17:00:56.913Z,3.09
2023-01-31T17:04:01.917Z,3.11
2023-01-31T17:06:33.794Z,3.15
2023-01-31T17:09:25.477Z,3.17
2023-01-31T17:12:00.254Z,3.19
2023-01-31T17:14:57.274Z,3.22
2023-01-31T17:17:32.808Z,3.24
2023-01-31T17:20:25.120Z,3.27
2023-01-31T17:23:06.464Z,3.31
2023-01-31T17:25:57.391Z,3.33
2023-01-31T17:29:00.692Z,3.35
2023-01-31T17:31:46.411Z,3.37
2023-01-31T17:34:37.558Z,3.38
2023-01-31T17:37:30.079Z,3.39
2023-01-31T17:40:14.013Z,3.42
2023-01-31T17:43:06.417Z,3.44
2023-01-31T17:45:40.703Z,3.47
2023-01-31T17:48:30.507Z,3.50
2023-01-31T17:51:21.522Z,3.52
2023-01-31T17:54:12.565Z,3.54
2023-01-31T17:56:43.673Z,3.55
2023-01-31T17:59:33.350Z,3.55
2023-01-31T18:02:04.323Z,3.54
2023-01-31T18:04:35.475Z,3.51
2023-01-31T18:07:26.476Z,3.49
2023-01-31T18:10:10.520Z,3.46
2023-01-31T18:13:01.389Z,3.44
2023-01-31T18:16:02.352Z,3.41
2023-01-31T18:18:53.476Z,3.39
2023-01-31T18:21:54.294Z,3.37
2023-01-31T18:24:46.303Z,3.35
2023-01-31T18:27:37.250Z,3.34
2023-01-31T18:30:28.299Z,3.33
2023-01-31T18:33:09.240Z,3.32
2023-01-31T18:35:43.158Z,3.31
2023-01-31T18:38:34.543Z,3.32
2023-01-31T18:41:18.283Z,3.32
2023-01-31T18:44:09.761Z,3.32
2023-01-31T18:46:49.403Z,3.33
2023-01-31T18:49:30.738Z,3.33
2023-01-31T18:52:21.654Z,3.33
2023-01-31T18:55:13.269Z,3.34
2023-01-31T18:57:54.281Z,3.35
2023-01-31T19:00:35.170Z,3.35
2023-01-31T19:03:15.263Z,3.36
2023-01-31T19:06:11.660Z,3.37
2023-01-31T19:08:58.018Z,3.37
2023-01-31T19:11:30.710Z,3.40
2023-01-31T19:14:20.319Z,3.40
2023-01-31T19:16:54.379Z,3.41
2023-01-31T19:19:38.167Z,3.41
2023-01-31T19:22:29.629Z,3.43
2023-01-31T19:25:14.062Z,3.42
2023-01-31T19:28:06.248Z,3.42
2023-01-31T19:30:57.286Z,3.42
2023-01-31T19:33:52.637Z,3.42
2023-01-31T19:36:36.991Z,3.41
2023-01-31T19:39:11.602Z,3.42
2023-01-31T19:42:02.675Z,3.42
2023-01-31T19:44:53.714Z,3.42
2023-01-31T19:47:45.010Z,3.41
2023-01-31T19:50:36.253Z,3.40
2023-01-31T19:53:27.874Z,3.41
2023-01-31T19:56:17.588Z,3.41
2023-01-31T19:59:09.587Z,3.40
2023-01-31T20:01:59.577Z,3.40
2023-01-31T20:04:40.620Z,3.41
2023-01-31T20:07:31.707Z,3.42
2023-01-31T20:10:15.013Z,3.42
2023-01-31T20:13:02.515Z,3.43
2023-01-31T20:16:00.772Z,3.43
2023-01-31T20:18:34.622Z,3.44
2023-01-31T20:21:24.367Z,3.45
2023-01-31T20:24:08.993Z,3.46
2023-01-31T20:27:01.319Z,3.47
2023-01-31T20:29:43.585Z,3.48
2023-01-31T20:32:25.180Z,3.49
2023-01-31T20:35:15.182Z,3.50
2023-01-31T20:38:06.182Z,3.52
2023-01-31T20:40:57.615Z,3.52
2023-01-31T20:43:38.551Z,3.54
2023-01-31T20:46:29.690Z,3.55
2023-01-31T20:49:21.485Z,3.56
2023-01-31T20:52:12.455Z,3.57
2023-01-31T20:55:03.414Z,3.56
2023-01-31T20:57:34.194Z,3.57
2023-01-31T21:00:26.394Z,3.58
2023-01-31T21:03:08.396Z,3.58
2023-01-31T21:06:01.609Z,3.59
2023-01-31T21:08:52.749Z,3.59
2023-01-31T21:11:31.013Z,3.59
2023-01-31T21:14:22.177Z,3.61
2023-01-31T21:17:14.071Z,3.63
2023-01-31T21:20:07.113Z,3.64
2023-01-31T21:22:41.038Z,3.66
2023-01-31T21:25:32.263Z,3.68
2023-01-31T21:28:03.261Z,3.69
2023-01-31T21:30:36.713Z,3.70
2023-01-31T21:33:20.596Z,3.71
2023-01-31T21:36:07.473Z,3.71
2023-01-31T21:38:49.485Z,3.71
2023-01-31T21:41:38.435Z,3.71
2023-01-31T21:44:09.568Z,3.72
2023-01-31T21:46:49.973Z,3.72
2023-01-31T21:49:41.224Z,3.71
2023-01-31T21:52:12.148Z,3.72
2023-01-31T21:55:03.187Z,3.73
2023-01-31T21:57:36.061Z,3.73
2023-01-31T22:00:27.238Z,3.75
2023-01-31T22:02:58.128Z,3.74
2023-01-31T22:05:29.163Z,3.76
2023-01-31T22:08:20.151Z,3.76
2023-01-31T22:11:06.848Z,3.77
2023-01-31T22:13:40.831Z,3.78
2023-01-31T22:16:15.766Z,3.78
2023-01-31T22:18:49.897Z,3.79
2023-01-31T22:21:30.069Z,3.79
2023-01-31T22:24:03.362Z,3.79
2023-01-31T22:26:54.292Z,3.79
2023-01-31T22:29:25.418Z,3.78
2023-01-31T22:31:56.823Z,3.80
2023-01-31T22:34:25.949Z,3.80
2023-01-31T22:36:56.703Z,3.80
2023-01-31T22:39:27.432Z,3.80
2023-01-31T22:41:58.213Z,3.80
2023-01-31T22:44:32.111Z,3.81
2023-01-31T22:47:02.812Z,3.81
2023-01-31T22:49:35.730Z,3.81
2023-01-31T22:52:16.447Z,3.80
2023-01-31T22:54:49.832Z,3.80
2023-01-31T22:57:21.372Z,3.81
2023-01-31T23:00:02.408Z,3.81
2023-01-31T23:02:34.116Z,3.81
2023-01-31T23:05:04.998Z,3.80
2023-01-31T23:07:35.754Z,3.79
2023-01-31T23:10:13.484Z,3.79
2023-01-31T23:12:58.297Z,3.77
2023-01-31T23:15:32.192Z,3.79
2023-01-31T23:18:23.188Z,3.79
2023-01-31T23:20:53.864Z,3.80
2023-01-31T23:23:28.605Z,3.81
2023-01-31T23:26:10.204Z,3.81
2023-01-31T23:28:43.879Z,3.81
2023-01-31T23:31:17.204Z,3.80
2023-01-31T23:33:47.991Z,3.81
2023-01-31T23:36:18.710Z,3.80
2023-01-31T23:38:49.396Z,3.80
2023-01-31T23:41:19.949Z,3.82
2023-01-31T23:43:57.893Z,3.81
2023-01-31T23:46:28.618Z,3.81
2023-01-31T23:49:08.588Z,3.81
2023-01-31T23:51:59.900Z,3.81
2023-01-31T23:54:30.667Z,3.81
2023-01-31T23:57:01.483Z,3.82
2023-01-31T23:59:44.120Z,3.82
